Time;durP1;ratioP1;P1;durP2;ratioP2;P2;SDS_P1;SDS_P2;PMS_P1;PMS_P2;Temp;Humidity;BMP_temperature;BMP_pressure;BME280_temperature;BME280_humidity;BME280_pressure;Samples;Min_cycle;Max_cycle;Signal;HPM_P1;HPM_P2
2022/12/18 00:00:21;;;;;;;4.97;3.85;;;;;;;16.11;67.84;102506.72;20643344;28;20050;-89
2022/12/18 00:10:22;;;;;;;4.50;3.63;;;;;;;16.11;67.83;102504.03;20610266;28;20454;-89
2022/12/18 00:20:25;;;;;;;5.38;3.75;;;;;;;16.10;67.93;102511.22;20621558;28;20065;-89
2022/12/18 00:30:27;;;;;;;5.22;3.88;;;;;;;16.01;67.59;102501.84;20694088;28;20061;-88
2022/12/18 00:40:29;;;;;;;4.32;3.20;;;;;;;15.99;67.65;102481.38;20713399;28;20046;-89
2022/12/18 00:50:30;;;;;;;5.55;4.53;;;;;;;15.94;67.66;102473.59;20679595;28;20084;-89
2022/12/18 01:00:35;;;;;;;4.75;3.92;;;;;;;16.10;67.64;102481.66;20678831;28;20487;-90
2022/12/18 01:10:40;;;;;;;6.40;4.32;;;;;;;16.10;67.49;102495.09;20694342;28;20130;-89
2022/12/18 01:20:41;;;;;;;5.83;4.23;;;;;;;15.90;67.44;102466.63;20672012;28;20057;-89
2022/12/18 01:30:43;;;;;;;6.47;4.57;;;;;;;15.96;67.38;102493.19;20703276;28;20073;-90
2022/12/18 01:40:44;;;;;;;5.30;3.88;;;;;;;16.10;67.49;102524.63;20710925;28;20046;-89
2022/12/18 01:50:46;;;;;;;5.95;4.72;;;;;;;16.10;67.63;102527.31;20725869;28;20049;-89
2022/12/18 02:00:47;;;;;;;6.00;4.40;;;;;;;16.03;67.38;102509.81;20720197;28;20049;-90
2022/12/18 02:11:01;;;;;;;6.93;4.93;;;;;;;16.08;67.33;102515.81;20723320;28;20478;-88
2022/12/18 02:21:45;;;;;;;6.30;4.82;;;;;;;16.09;67.23;102537.22;20713660;28;20435;-89
2022/12/18 02:31:51;;;;;;;5.75;4.88;;;;;;;15.88;67.21;102481.97;20705836;28;20048;-89
2022/12/18 02:41:53;;;;;;;7.03;5.20;;;;;;;16.08;67.29;102499.69;20705153;28;20449;-89
2022/12/18 02:52:06;;;;;;;5.70;4.22;;;;;;;16.08;67.11;102513.13;20704432;28;20041;-90
2022/12/18 03:02:23;;;;;;;7.25;5.20;;;;;;;16.03;67.16;102509.81;20719463;28;20056;-90
2022/12/18 03:12:32;;;;;;;6.68;4.75;;;;;;;15.95;66.98;102495.00;20717742;28;20050;-89
2022/12/18 03:22:36;;;;;;;6.55;4.90;;;;;;;16.08;67.10;102488.94;20684043;28;20104;-89
2022/12/18 03:32:48;;;;;;;7.50;5.00;;;;;;;16.07;67.16;102506.88;20716217;28;20080;-89
2022/12/18 03:42:54;;;;;;;7.53;5.13;;;;;;;16.07;67.01;102504.19;20701032;28;20074;-89
2022/12/18 03:53:08;;;;;;;8.43;5.47;;;;;;;15.90;67.03;102477.38;20715785;28;20045;-89
2022/12/18 04:03:10;;;;;;;7.25;4.90;;;;;;;16.06;66.75;102506.97;20683001;28;20050;-90
2022/12/18 04:13:28;;;;;;;8.48;5.85;;;;;;;15.98;66.85;102468.91;20714654;28;20549;-90
2022/12/18 04:23:31;;;;;;;6.95;5.22;;;;;;;16.06;66.82;102474.72;20681743;28;20129;-89
2022/12/18 04:33:33;;;;;;;8.00;5.72;;;;;;;15.20;66.59;102333.50;20714674;28;20038;-90
2022/12/18 04:43:35;;;;;;;6.82;5.20;;;;;;;15.77;66.61;102445.81;20696304;28;20053;-89
2022/12/18 04:53:37;;;;;;;7.22;5.10;;;;;;;16.06;66.52;102499.78;20712296;28;20132;-89
2022/12/18 05:03:39;;;;;;;7.10;5.35;;;;;;;16.06;66.38;102488.16;20694782;28;20121;-90
2022/12/18 05:13:43;;;;;;;7.15;5.15;;;;;;;16.04;66.44;102480.19;20693267;28;20494;-89
2022/12/18 05:23:44;;;;;;;6.68;5.28;;;;;;;16.04;66.58;102496.31;20700390;28;20061;-89
2022/12/18 05:33:46;;;;;;;9.38;6.10;;;;;;;16.05;65.72;102500.72;20663690;28;20182;-93
2022/12/18 05:43:48;;;;;;;9.02;6.22;;;;;;;16.15;66.57;102505.59;20599480;28;20050;-92
2022/12/18 05:53:49;;;;;;;8.45;5.85;;;;;;;16.20;67.19;102508.88;20601547;28;20062;-89
2022/12/18 06:03:51;;;;;;;8.35;5.97;;;;;;;15.46;67.59;102399.16;20605370;28;20112;-94
2022/12/18 06:13:54;;;;;;;7.68;5.57;;;;;;;16.22;68.44;102532.03;20617983;28;20443;-89
2022/12/18 06:23:59;;;;;;;9.55;6.00;;;;;;;15.89;68.59;102481.03;20624417;28;20051;-89
2022/12/18 06:34:02;;;;;;;7.95;6.00;;;;;;;16.24;68.75;102545.38;20643065;28;20058;-95
2022/12/18 06:44:04;;;;;;;9.02;5.78;;;;;;;16.21;68.50;102537.50;20615230;28;20066;-96
2022/12/18 06:54:06;;;;;;;7.70;5.50;;;;;;;16.20;68.89;102530.38;20612966;28;20052;-88
2022/12/18 07:04:07;;;;;;;11.52;6.68;;;;;;;16.18;68.68;102513.47;20632328;28;20141;-88
2022/12/18 07:14:09;;;;;;;8.23;6.15;;;;;;;15.87;68.55;102443.50;20621790;28;20068;-88
2022/12/18 07:24:10;;;;;;;8.73;5.78;;;;;;;16.13;68.57;102496.75;20615791;28;20137;-87
2022/12/18 07:34:12;;;;;;;8.82;5.97;;;;;;;16.14;68.45;102485.94;20644088;28;20047;-88
2022/12/18 07:44:15;;;;;;;10.95;5.88;;;;;;;16.16;67.92;102483.13;20170014;28;20159;-86
2022/12/18 08:02:13;;;;;;;10.05;6.00;;;;;;;15.99;67.83;102476.91;21088407;27;20133;-86
2022/12/18 08:12:14;;;;;;;8.02;5.60;;;;;;;16.09;67.76;102502.28;20950632;28;20056;-87
2022/12/18 08:29:25;;;;;;;8.02;5.57;;;;;;;16.07;67.95;102469.28;21129441;27;20129;-87
2022/12/18 08:39:26;;;;;;;7.07;4.97;;;;;;;16.06;67.84;102447.84;21027366;28;20050;-87
2022/12/18 08:56:38;;;;;;;6.15;4.50;;;;;;;16.05;67.81;102464.94;21188043;27;20124;-87
2022/12/18 09:06:39;;;;;;;8.13;5.10;;;;;;;16.05;67.94;102490.00;20861496;28;20054;-86
2022/12/18 09:24:12;;;;;;;6.70;4.82;;;;;;;16.05;67.62;102481.94;21227490;27;20128;-86
2022/12/18 09:34:12;;;;;;;6.63;4.88;;;;;;;15.84;67.72;102437.41;21124767;28;20099;-87
2022/12/18 09:51:58;;;;;;;5.80;4.35;;;;;;;15.22;67.56;102335.16;21186029;27;20123;-86
2022/12/18 10:01:59;;;;;;;6.03;4.38;;;;;;;16.00;67.50;102459.84;20998761;28;20392;-87
2022/12/18 10:19:52;;;;;;;5.82;4.18;;;;;;;16.05;67.70;102432.69;21178345;27;20128;-87
2022/12/18 10:29:54;;;;;;;5.00;3.97;;;;;;;16.03;67.67;102408.63;20876501;28;20504;-87
2022/12/18 10:46:55;;;;;;;4.90;4.40;;;;;;;16.10;66.52;102355.38;21292417;27;20385;-86
2022/12/18 10:57:15;;;;;;;5.45;4.05;;;;;;;16.23;66.60;102351.03;21061832;28;20078;-86
2022/12/18 11:07:49;;;;;;;5.10;3.95;;;;;;;15.88;66.77;102297.53;21157959;27;20121;-85
2022/12/18 11:17:50;;;;;;;4.57;3.50;;;;;;;16.13;66.74;102347.16;20937501;28;20047;-86
2022/12/18 11:35:42;;;;;;;4.40;3.75;;;;;;;16.35;66.21;102362.91;21164398;27;20387;-87
2022/12/18 11:45:52;;;;;;;4.70;3.60;;;;;;;15.98;66.28;102283.56;20780397;28;20045;-87
2022/12/18 11:56:26;;;;;;;4.10;2.95;;;;;;;16.18;66.69;102304.78;21169107;27;20121;-86
2022/12/18 12:06:33;;;;;;;4.85;3.65;;;;;;;15.95;66.68;102277.44;20813666;28;20054;-86
2022/12/18 12:23:27;;;;;;;4.25;3.08;;;;;;;16.08;66.90;102266.84;21190773;27;20127;-86
2022/12/18 12:33:37;;;;;;;4.50;3.05;;;;;;;16.07;67.07;102229.31;20966691;28;20083;-87
2022/12/18 12:50:49;;;;;;;3.45;2.63;;;;;;;16.05;66.80;102201.66;21172699;27;20128;-86
2022/12/18 13:01:08;;;;;;;3.63;2.67;;;;;;;16.05;67.18;102189.13;20984029;28;20043;-86
2022/12/18 13:18:10;;;;;;;3.15;2.33;;;;;;;16.05;67.16;102175.69;21138279;27;20128;-86
2022/12/18 13:28:15;;;;;;;3.30;2.33;;;;;;;15.99;66.93;102165.31;20893819;28;20116;-87
2022/12/18 13:45:44;;;;;;;3.30;2.40;;;;;;;16.04;66.89;102133.66;21172693;27;20121;-86
2022/12/18 13:55:48;;;;;;;3.60;2.63;;;;;;;15.77;66.79;102067.22;20869700;28;20064;-87
2022/12/18 14:22:46;;;;;;;3.42;2.40;;;;;;;16.05;67.02;102099.59;20910896;28;20597;-87
2022/12/18 14:33:21;;;;;;;2.50;2.30;;;;;;;16.23;65.90;102086.84;21283742;27;20402;-86
2022/12/18 14:43:22;;;;;;;2.22;1.83;;;;;;;16.23;66.12;102098.47;21062239;28;20473;-86
2022/12/18 15:00:22;;;;;;;2.65;2.03;;;;;;;16.17;66.84;102068.41;21062605;27;20129;-86
2022/12/18 15:10:31;;;;;;;2.45;1.70;;;;;;;15.79;67.26;101987.41;20406588;28;20123;-86
2022/12/18 15:25:26;;;;;;;2.10;1.73;;;;;;;16.17;66.78;102037.06;21103321;27;20130;-89
2022/12/18 15:35:26;;;;;;;2.35;1.67;;;;;;;16.20;66.48;102027.91;20143186;28;20107;-88
2022/12/18 15:45:48;;;;;;;3.15;1.80;;;;;;;16.17;66.47;102025.44;21131099;27;20135;-88
2022/12/18 16:13:16;;;;;;;2.50;2.00;;;;;;;16.37;65.67;101949.78;21122284;27;20408;-91
2022/12/18 16:23:16;;;;;;;2.00;1.50;;;;;;;16.29;65.56;101909.09;20516285;28;20040;-86
2022/12/18 16:40:24;;;;;;;2.88;1.67;;;;;;;16.17;65.57;101921.53;21087001;27;20119;-86
2022/12/18 16:50:25;;;;;;;2.15;1.50;;;;;;;16.13;65.68;101924.50;19748794;28;20095;-88
2022/12/18 17:00:52;;;;;;;3.17;1.73;;;;;;;16.11;65.96;101904.94;21003821;27;20790;-91
2022/12/18 17:10:53;;;;;;;2.08;1.52;;;;;;;16.08;65.93;101912.22;19997195;28;20072;-88
2022/12/18 17:21:15;;;;;;;2.42;1.85;;;;;;;16.07;66.19;101889.03;21048858;27;20130;-89
2022/12/18 17:31:19;;;;;;;1.70;1.50;;;;;;;16.08;66.22;101882.69;20220381;28;20140;-88
2022/12/18 17:46:29;;;;;;;2.45;1.73;;;;;;;16.06;66.43;101856.88;21103881;27;20129;-90
2022/12/18 17:56:30;;;;;;;2.75;1.40;;;;;;;16.06;66.43;101841.63;20531586;28;20067;-90
2022/12/18 18:14:04;;;;;;;1.98;1.48;;;;;;;15.91;66.35;101802.38;21087124;27;20135;-88
2022/12/18 18:24:05;;;;;;;2.70;1.80;;;;;;;16.04;66.38;101830.13;20050436;28;20118;-90
2022/12/18 18:34:25;;;;;;;1.80;1.35;;;;;;;15.57;66.27;101740.13;21098596;27;20133;-92
2022/12/18 18:44:26;;;;;;;2.13;1.65;;;;;;;16.04;66.59;101827.44;20249651;28;20119;-92
2022/12/18 18:54:50;;;;;;;2.10;1.27;;;;;;;16.05;66.36;101821.09;20927582;27;20142;-91
2022/12/18 19:05:11;;;;;;;2.22;1.60;;;;;;;16.03;66.46;101828.41;20376107;28;20058;-88
2022/12/18 19:15:34;;;;;;;1.92;1.27;;;;;;;16.00;66.44;101812.50;21033074;27;20720;-91
2022/12/18 19:25:37;;;;;;;2.28;1.42;;;;;;;16.05;66.02;101810.38;20351005;28;20053;-90
2022/12/18 19:40:40;;;;;;;2.25;1.70;;;;;;;16.05;66.16;101796.94;21024588;27;20137;-90
2022/12/18 19:50:41;;;;;;;2.42;1.73;;;;;;;15.86;66.09;101758.78;20268314;28;20050;-91
2022/12/18 20:06:52;;;;;;;2.30;1.30;;;;;;;15.99;66.07;101777.66;21076967;27;20122;-92
2022/12/18 20:16:53;;;;;;;2.35;1.40;;;;;;;15.83;66.30;101742.88;20162677;28;20068;-91
2022/12/18 20:27:13;;;;;;;1.55;1.10;;;;;;;15.79;65.93;101729.66;20964798;27;20122;-91
2022/12/18 20:37:19;;;;;;;3.30;1.33;;;;;;;16.03;66.27;101763.94;20575656;28;20124;-91
2022/12/18 20:48:12;;;;;;;2.03;1.53;;;;;;;16.31;65.30;101759.38;21193856;27;20386;-92
2022/12/18 20:58:12;;;;;;;2.35;1.30;;;;;;;16.24;65.53;101758.06;20347510;28;20138;-92
2022/12/18 21:15:10;;;;;;;1.70;1.30;;;;;;;15.78;65.49;101678.78;21123510;27;20128;-92
2022/12/18 21:25:11;;;;;;;1.63;1.50;;;;;;;16.05;66.01;101734.28;20389254;28;20068;-92
2022/12/18 21:41:08;;;;;;;1.52;1.30;;;;;;;16.05;65.99;101715.47;21061255;27;20132;-91
2022/12/18 21:51:09;;;;;;;1.63;1.33;;;;;;;16.03;66.22;101707.53;20033730;28;20053;-91
2022/12/18 22:01:35;;;;;;;1.75;1.30;;;;;;;16.03;66.26;101699.47;21126758;27;20125;-91
2022/12/18 22:11:38;;;;;;;1.20;1.10;;;;;;;16.02;66.35;101703.13;20672104;28;20073;-91
2022/12/18 22:22:06;;;;;;;1.95;1.30;;;;;;;16.01;66.21;101679.94;21119627;27;20126;-91
2022/12/18 22:32:09;;;;;;;2.00;1.30;;;;;;;16.01;66.23;101669.19;20235656;28;20059;-93
2022/12/18 22:49:06;;;;;;;2.40;1.30;;;;;;;16.00;66.14;101672.84;21176708;27;20132;-92
2022/12/18 22:59:08;;;;;;;1.75;1.38;;;;;;;16.00;66.09;101637.94;20778152;27;20056;-90
2022/12/18 23:15:19;;;;;;;1.77;1.27;;;;;;;16.00;66.48;101610.19;21110562;27;20126;-90
2022/12/18 23:25:28;;;;;;;1.95;1.20;;;;;;;15.98;66.25;101604.06;20467834;28;20712;-91
2022/12/18 23:35:57;;;;;;;2.15;1.42;;;;;;;15.72;66.35;101529.69;21017439;27;20129;-91
2022/12/18 23:45:57;;;;;;;2.28;1.48;;;;;;;15.70;66.34;101496.75;20191080;28;20131;-91
2022/12/18 23:56:22;;;;;;;2.47;1.30;;;;;;;15.99;66.05;101547.56;21051950;27;20130;-91
